sensor_id;sensor_type;location;lat;lon;timestamp;P1;durP1;ratioP1;P2;durP2;ratioP2
466;SDS011;72290;48.808;9.222;2023-11-21T06:02:41;3.03;;;1.77;;
466;SDS011;72290;48.808;9.222;2023-11-21T06:05:08;6.57;;;2.00;;
466;SDS011;72290;48.808;9.222;2023-11-21T06:07:34;3.87;;;1.80;;
466;SDS011;72290;48.808;9.222;2023-11-21T06:10:01;4.33;;;1.50;;
466;SDS011;72290;48.808;9.222;2023-11-21T06:12:30;6.60;;;1.73;;
466;SDS011;72290;48.808;9.222;2023-11-21T06:15:00;2.90;;;1.40;;
466;SDS011;72290;48.808;9.222;2023-11-21T06:17:26;2.70;;;1.43;;
466;SDS011;72290;48.808;9.222;2023-11-21T06:19:53;1.80;;;1.50;;
466;SDS011;72290;48.808;9.222;2023-11-21T06:22:19;4.23;;;2.47;;
466;SDS011;72290;48.808;9.222;2023-11-21T06:24:45;6.30;;;3.30;;
466;SDS011;72290;48.808;9.222;2023-11-21T06:27:11;2.30;;;1.17;;
466;SDS011;72290;48.808;9.222;2023-11-21T06:29:37;6.97;;;3.70;;
466;SDS011;72290;48.808;9.222;2023-11-21T06:32:03;2.87;;;1.50;;
466;SDS011;72290;48.808;9.222;2023-11-21T06:34:30;2.00;;;1.40;;
466;SDS011;72290;48.808;9.222;2023-11-21T06:36:56;2.77;;;1.30;;
466;SDS011;72290;48.808;9.222;2023-11-21T06:39:22;3.70;;;1.17;;
466;SDS011;72290;48.808;9.222;2023-11-21T06:41:51;3.77;;;1.70;;
466;SDS011;72290;48.808;9.222;2023-11-21T06:44:16;12.33;;;1.60;;
466;SDS011;72290;48.808;9.222;2023-11-21T06:46:44;3.50;;;1.97;;
466;SDS011;72290;48.808;9.222;2023-11-21T06:49:10;5.20;;;1.57;;
466;SDS011;72290;48.808;9.222;2023-11-21T06:51:37;3.17;;;1.60;;
466;SDS011;72290;48.808;9.222;2023-11-21T06:54:02;5.10;;;1.67;;
466;SDS011;72290;48.808;9.222;2023-11-21T06:56:29;10.00;;;3.20;;
466;SDS011;72290;48.808;9.222;2023-11-21T06:58:55;4.37;;;2.97;;
466;SDS011;72290;48.808;9.222;2023-11-21T07:01:21;2.73;;;1.63;;
466;SDS011;72290;48.808;9.222;2023-11-21T07:03:47;2.40;;;1.57;;
466;SDS011;72290;48.808;9.222;2023-11-21T07:06:13;7.70;;;1.80;;
466;SDS011;72290;48.808;9.222;2023-11-21T07:08:39;5.93;;;2.40;;
466;SDS011;72290;48.808;9.222;2023-11-21T07:11:05;3.03;;;1.87;;
466;SDS011;72290;48.808;9.222;2023-11-21T07:13:32;6.17;;;1.90;;
466;SDS011;72290;48.808;9.222;2023-11-21T07:15:58;8.30;;;1.70;;
466;SDS011;72290;48.808;9.222;2023-11-21T07:18:24;3.10;;;1.87;;
466;SDS011;72290;48.808;9.222;2023-11-21T07:20:50;1.77;;;1.33;;
466;SDS011;72290;48.808;9.222;2023-11-21T07:23:17;4.03;;;2.03;;
466;SDS011;72290;48.808;9.222;2023-11-21T07:25:43;4.00;;;2.00;;
466;SDS011;72290;48.808;9.222;2023-11-21T07:28:09;5.80;;;2.90;;
466;SDS011;72290;48.808;9.222;2023-11-21T07:30:35;2.20;;;1.80;;
466;SDS011;72290;48.808;9.222;2023-11-21T07:33:01;3.67;;;1.63;;
466;SDS011;72290;48.808;9.222;2023-11-21T07:35:27;8.30;;;2.20;;
466;SDS011;72290;48.808;9.222;2023-11-21T07:37:53;2.13;;;1.80;;
466;SDS011;72290;48.808;9.222;2023-11-21T07:40:19;1.50;;;1.47;;
466;SDS011;72290;48.808;9.222;2023-11-21T07:42:45;4.63;;;2.10;;
466;SDS011;72290;48.808;9.222;2023-11-21T07:45:11;2.37;;;1.70;;
466;SDS011;72290;48.808;9.222;2023-11-21T07:47:37;3.60;;;2.30;;
466;SDS011;72290;48.808;9.222;2023-11-21T07:50:04;6.47;;;1.90;;
466;SDS011;72290;48.808;9.222;2023-11-21T07:52:30;2.10;;;1.80;;
466;SDS011;72290;48.808;9.222;2023-11-21T07:54:56;3.27;;;1.67;;
466;SDS011;72290;48.808;9.222;2023-11-21T07:57:22;11.37;;;2.53;;
466;SDS011;72290;48.808;9.222;2023-11-21T07:59:48;3.00;;;2.10;;
466;SDS011;72290;48.808;9.222;2023-11-21T08:02:14;2.93;;;1.67;;
466;SDS011;72290;48.808;9.222;2023-11-21T08:04:42;4.57;;;1.77;;
466;SDS011;72290;48.808;9.222;2023-11-21T08:07:09;4.67;;;2.17;;
466;SDS011;72290;48.808;9.222;2023-11-21T08:09:36;3.07;;;1.90;;
466;SDS011;72290;48.808;9.222;2023-11-21T08:12:02;5.70;;;2.10;;
466;SDS011;72290;48.808;9.222;2023-11-21T08:14:29;3.43;;;2.00;;
466;SDS011;72290;48.808;9.222;2023-11-21T08:16:56;3.53;;;1.87;;
466;SDS011;72290;48.808;9.222;2023-11-21T08:19:23;8.70;;;2.20;;
466;SDS011;72290;48.808;9.222;2023-11-21T08:21:52;3.43;;;2.60;;
466;SDS011;72290;48.808;9.222;2023-11-21T08:24:19;4.67;;;2.83;;
466;SDS011;72290;48.808;9.222;2023-11-21T08:26:45;5.07;;;2.50;;
466;SDS011;72290;48.808;9.222;2023-11-21T08:29:11;3.00;;;1.80;;
466;SDS011;72290;48.808;9.222;2023-11-21T08:31:37;3.50;;;1.90;;
466;SDS011;72290;48.808;9.222;2023-11-21T08:34:03;3.93;;;2.27;;
466;SDS011;72290;48.808;9.222;2023-11-21T08:36:29;4.20;;;2.03;;
466;SDS011;72290;48.808;9.222;2023-11-21T08:38:56;4.07;;;2.00;;
466;SDS011;72290;48.808;9.222;2023-11-21T08:41:22;3.13;;;2.33;;
466;SDS011;72290;48.808;9.222;2023-11-21T08:43:52;5.30;;;2.10;;
466;SDS011;72290;48.808;9.222;2023-11-21T08:46:20;2.17;;;1.77;;
466;SDS011;72290;48.808;9.222;2023-11-21T08:48:48;2.03;;;1.77;;
466;SDS011;72290;48.808;9.222;2023-11-21T08:51:17;5.23;;;2.23;;
466;SDS011;72290;48.808;9.222;2023-11-21T08:53:43;5.63;;;2.13;;
466;SDS011;72290;48.808;9.222;2023-11-21T08:56:15;2.03;;;1.80;;
466;SDS011;72290;48.808;9.222;2023-11-21T08:58:41;3.47;;;1.90;;
466;SDS011;72290;48.808;9.222;2023-11-21T09:01:07;4.63;;;2.00;;
466;SDS011;72290;48.808;9.222;2023-11-21T09:03:33;2.40;;;1.57;;
466;SDS011;72290;48.808;9.222;2023-11-21T09:05:59;3.87;;;1.80;;
466;SDS011;72290;48.808;9.222;2023-11-21T09:08:25;3.77;;;1.90;;
466;SDS011;72290;48.808;9.222;2023-11-21T09:10:54;2.20;;;1.93;;
466;SDS011;72290;48.808;9.222;2023-11-21T09:13:20;9.30;;;2.10;;
466;SDS011;72290;48.808;9.222;2023-11-21T09:15:46;2.33;;;2.07;;
466;SDS011;72290;48.808;9.222;2023-11-21T09:18:15;2.50;;;1.90;;
466;SDS011;72290;48.808;9.222;2023-11-21T09:20:42;2.03;;;1.70;;
466;SDS011;72290;48.808;9.222;2023-11-21T09:23:09;3.80;;;1.73;;
466;SDS011;72290;48.808;9.222;2023-11-21T09:25:35;4.07;;;1.90;;
466;SDS011;72290;48.808;9.222;2023-11-21T09:28:02;4.33;;;2.40;;
466;SDS011;72290;48.808;9.222;2023-11-21T09:30:32;2.30;;;1.67;;
466;SDS011;72290;48.808;9.222;2023-11-21T09:32:58;2.97;;;1.87;;
466;SDS011;72290;48.808;9.222;2023-11-21T09:35:25;5.40;;;2.20;;
466;SDS011;72290;48.808;9.222;2023-11-21T09:37:52;3.93;;;2.33;;
466;SDS011;72290;48.808;9.222;2023-11-21T09:40:20;3.30;;;2.53;;
466;SDS011;72290;48.808;9.222;2023-11-21T09:42:56;2.87;;;2.00;;
466;SDS011;72290;48.808;9.222;2023-11-21T09:47:53;7.73;;;2.17;;
466;SDS011;72290;48.808;9.222;2023-11-21T09:50:23;4.80;;;2.20;;
466;SDS011;72290;48.808;9.222;2023-11-21T09:55:18;5.83;;;2.50;;
466;SDS011;72290;48.808;9.222;2023-11-21T09:57:46;8.03;;;2.77;;
466;SDS011;72290;48.808;9.222;2023-11-21T10:00:14;3.53;;;2.17;;
466;SDS011;72290;48.808;9.222;2023-11-21T10:02:42;4.07;;;3.03;;
466;SDS011;72290;48.808;9.222;2023-11-21T10:05:09;9.60;;;3.20;;
466;SDS011;72290;48.808;9.222;2023-11-21T10:07:36;3.43;;;2.20;;
466;SDS011;72290;48.808;9.222;2023-11-21T10:10:03;3.60;;;2.50;;
466;SDS011;72290;48.808;9.222;2023-11-21T10:12:30;7.80;;;3.23;;
466;SDS011;72290;48.808;9.222;2023-11-21T10:14:58;2.40;;;2.03;;
466;SDS011;72290;48.808;9.222;2023-11-21T10:17:25;3.30;;;2.17;;
466;SDS011;72290;48.808;9.222;2023-11-21T10:19:55;5.43;;;2.80;;
466;SDS011;72290;48.808;9.222;2023-11-21T10:22:22;4.10;;;2.40;;
466;SDS011;72290;48.808;9.222;2023-11-21T10:24:48;5.30;;;2.83;;
466;SDS011;72290;48.808;9.222;2023-11-21T10:27:14;4.47;;;2.83;;
466;SDS011;72290;48.808;9.222;2023-11-21T10:29:40;5.67;;;3.00;;
466;SDS011;72290;48.808;9.222;2023-11-21T10:32:06;4.00;;;2.50;;
466;SDS011;72290;48.808;9.222;2023-11-21T10:34:32;5.53;;;3.63;;
466;SDS011;72290;48.808;9.222;2023-11-21T10:37:00;4.13;;;2.70;;
466;SDS011;72290;48.808;9.222;2023-11-21T10:39:36;4.07;;;2.60;;
466;SDS011;72290;48.808;9.222;2023-11-21T10:42:02;4.17;;;2.37;;
466;SDS011;72290;48.808;9.222;2023-11-21T10:44:28;4.30;;;2.27;;
466;SDS011;72290;48.808;9.222;2023-11-21T10:46:54;4.07;;;2.80;;
466;SDS011;72290;48.808;9.222;2023-11-21T10:49:26;1.40;;;1.30;;
466;SDS011;72290;48.808;9.222;2023-11-21T10:51:55;2.07;;;1.93;;
466;SDS011;72290;48.808;9.222;2023-11-21T10:54:22;7.67;;;1.57;;
466;SDS011;72290;48.808;9.222;2023-11-21T10:56:48;2.20;;;1.20;;
466;SDS011;72290;48.808;9.222;2023-11-21T10:59:16;1.67;;;1.33;;
466;SDS011;72290;48.808;9.222;2023-11-21T11:01:44;1.57;;;1.50;;
466;SDS011;72290;48.808;9.222;2023-11-21T11:04:11;1.33;;;1.23;;
466;SDS011;72290;48.808;9.222;2023-11-21T11:06:44;2.00;;;1.60;;
466;SDS011;72290;48.808;9.222;2023-11-21T11:09:11;1.57;;;1.53;;
466;SDS011;72290;48.808;9.222;2023-11-21T11:11:41;2.73;;;1.20;;
466;SDS011;72290;48.808;9.222;2023-11-21T11:14:10;3.50;;;2.03;;
466;SDS011;72290;48.808;9.222;2023-11-21T11:16:37;3.13;;;1.80;;
466;SDS011;72290;48.808;9.222;2023-11-21T11:19:09;2.43;;;1.80;;
466;SDS011;72290;48.808;9.222;2023-11-21T11:21:59;2.30;;;1.90;;
466;SDS011;72290;48.808;9.222;2023-11-21T11:27:06;1.27;;;0.97;;
466;SDS011;72290;48.808;9.222;2023-11-21T11:34:59;7.03;;;1.83;;
466;SDS011;72290;48.808;9.222;2023-11-21T11:37:27;2.70;;;1.80;;
466;SDS011;72290;48.808;9.222;2023-11-21T11:39:53;3.97;;;1.93;;
466;SDS011;72290;48.808;9.222;2023-11-21T11:42:20;4.83;;;1.87;;
466;SDS011;72290;48.808;9.222;2023-11-21T11:44:49;5.40;;;2.10;;
466;SDS011;72290;48.808;9.222;2023-11-21T11:47:23;4.10;;;2.27;;
466;SDS011;72290;48.808;9.222;2023-11-21T11:49:57;2.20;;;2.00;;
466;SDS011;72290;48.808;9.222;2023-11-21T11:52:43;1.90;;;1.80;;
466;SDS011;72290;48.808;9.222;2023-11-21T11:55:11;1.63;;;1.60;;
466;SDS011;72290;48.808;9.222;2023-11-21T11:57:38;2.00;;;1.90;;
466;SDS011;72290;48.808;9.222;2023-11-21T12:00:15;1.93;;;1.60;;
466;SDS011;72290;48.808;9.222;2023-11-21T12:02:42;1.70;;;1.60;;
466;SDS011;72290;48.808;9.222;2023-11-21T12:05:13;3.13;;;1.90;;
466;SDS011;72290;48.808;9.222;2023-11-21T12:07:43;2.40;;;2.20;;
466;SDS011;72290;48.808;9.222;2023-11-21T12:10:12;3.43;;;2.40;;
466;SDS011;72290;48.808;9.222;2023-11-21T12:12:43;2.03;;;1.70;;
466;SDS011;72290;48.808;9.222;2023-11-21T12:15:10;2.73;;;1.57;;
466;SDS011;72290;48.808;9.222;2023-11-21T12:17:37;3.10;;;1.50;;
466;SDS011;72290;48.808;9.222;2023-11-21T12:20:04;1.70;;;1.60;;
466;SDS011;72290;48.808;9.222;2023-11-21T12:22:32;6.53;;;1.87;;
466;SDS011;72290;48.808;9.222;2023-11-21T12:24:58;3.17;;;2.33;;
466;SDS011;72290;48.808;9.222;2023-11-21T12:27:24;1.30;;;1.20;;
466;SDS011;72290;48.808;9.222;2023-11-21T12:29:50;1.50;;;1.50;;
466;SDS011;72290;48.808;9.222;2023-11-21T12:32:16;3.20;;;1.70;;
466;SDS011;72290;48.808;9.222;2023-11-21T12:34:43;2.87;;;1.70;;
466;SDS011;72290;48.808;9.222;2023-11-21T12:37:09;2.90;;;2.23;;
466;SDS011;72290;48.808;9.222;2023-11-21T12:39:35;1.83;;;1.73;;
466;SDS011;72290;48.808;9.222;2023-11-21T12:42:01;1.47;;;1.40;;
466;SDS011;72290;48.808;9.222;2023-11-21T12:44:27;1.87;;;1.83;;
466;SDS011;72290;48.808;9.222;2023-11-21T12:46:54;2.67;;;2.07;;
466;SDS011;72290;48.808;9.222;2023-11-21T12:49:20;1.80;;;1.70;;
466;SDS011;72290;48.808;9.222;2023-11-21T12:51:47;2.23;;;1.73;;
466;SDS011;72290;48.808;9.222;2023-11-21T12:54:13;2.87;;;2.67;;
466;SDS011;72290;48.808;9.222;2023-11-21T12:56:39;2.90;;;2.70;;
466;SDS011;72290;48.808;9.222;2023-11-21T12:59:05;3.03;;;2.27;;
466;SDS011;72290;48.808;9.222;2023-11-21T13:01:31;2.70;;;2.50;;
466;SDS011;72290;48.808;9.222;2023-11-21T13:03:57;3.63;;;2.33;;
466;SDS011;72290;48.808;9.222;2023-11-21T13:06:23;4.47;;;2.20;;
466;SDS011;72290;48.808;9.222;2023-11-21T13:08:51;3.00;;;2.73;;
466;SDS011;72290;48.808;9.222;2023-11-21T13:11:17;3.97;;;2.13;;
466;SDS011;72290;48.808;9.222;2023-11-21T13:13:43;2.90;;;2.40;;
466;SDS011;72290;48.808;9.222;2023-11-21T13:16:10;3.80;;;3.10;;
466;SDS011;72290;48.808;9.222;2023-11-21T13:18:36;3.20;;;2.50;;
466;SDS011;72290;48.808;9.222;2023-11-21T13:21:05;5.03;;;3.00;;
466;SDS011;72290;48.808;9.222;2023-11-21T13:23:42;5.23;;;3.83;;
466;SDS011;72290;48.808;9.222;2023-11-21T13:26:11;4.10;;;2.90;;
466;SDS011;72290;48.808;9.222;2023-11-21T13:28:37;6.93;;;4.07;;
466;SDS011;72290;48.808;9.222;2023-11-21T13:31:05;5.13;;;3.30;;
466;SDS011;72290;48.808;9.222;2023-11-21T13:33:35;7.63;;;3.97;;
466;SDS011;72290;48.808;9.222;2023-11-21T13:36:04;4.57;;;3.30;;
466;SDS011;72290;48.808;9.222;2023-11-21T13:38:32;6.00;;;3.63;;
466;SDS011;72290;48.808;9.222;2023-11-21T13:41:00;5.17;;;3.20;;
466;SDS011;72290;48.808;9.222;2023-11-21T13:43:27;3.93;;;3.00;;
466;SDS011;72290;48.808;9.222;2023-11-21T13:45:54;6.10;;;2.80;;
466;SDS011;72290;48.808;9.222;2023-11-21T13:48:26;6.30;;;3.80;;
466;SDS011;72290;48.808;9.222;2023-11-21T13:51:05;6.00;;;4.03;;
466;SDS011;72290;48.808;9.222;2023-11-21T13:53:45;6.23;;;3.20;;
466;SDS011;72290;48.808;9.222;2023-11-21T13:56:18;5.23;;;3.50;;
466;SDS011;72290;48.808;9.222;2023-11-21T13:58:49;4.87;;;2.80;;
466;SDS011;72290;48.808;9.222;2023-11-21T14:01:18;5.00;;;3.30;;
466;SDS011;72290;48.808;9.222;2023-11-21T14:04:00;5.33;;;3.00;;
466;SDS011;72290;48.808;9.222;2023-11-21T14:06:48;4.40;;;3.23;;
466;SDS011;72290;48.808;9.222;2023-11-21T14:09:16;4.30;;;3.20;;
466;SDS011;72290;48.808;9.222;2023-11-21T14:11:50;5.60;;;3.60;;
466;SDS011;72290;48.808;9.222;2023-11-21T14:14:21;5.80;;;3.57;;
466;SDS011;72290;48.808;9.222;2023-11-21T14:16:47;7.43;;;3.23;;
466;SDS011;72290;48.808;9.222;2023-11-21T14:19:13;4.30;;;3.07;;
466;SDS011;72290;48.808;9.222;2023-11-21T14:21:45;5.23;;;2.93;;
466;SDS011;72290;48.808;9.222;2023-11-21T14:24:11;4.73;;;2.77;;
466;SDS011;72290;48.808;9.222;2023-11-21T14:26:39;3.07;;;2.77;;
466;SDS011;72290;48.808;9.222;2023-11-21T14:29:05;4.03;;;2.53;;
466;SDS011;72290;48.808;9.222;2023-11-21T14:31:32;10.00;;;4.83;;
466;SDS011;72290;48.808;9.222;2023-11-21T14:33:59;8.13;;;4.40;;
466;SDS011;72290;48.808;9.222;2023-11-21T14:36:26;8.37;;;4.40;;
466;SDS011;72290;48.808;9.222;2023-11-21T14:38:52;4.67;;;3.00;;
466;SDS011;72290;48.808;9.222;2023-11-21T14:41:19;6.50;;;4.23;;
466;SDS011;72290;48.808;9.222;2023-11-21T14:43:44;9.30;;;5.13;;
466;SDS011;72290;48.808;9.222;2023-11-21T14:46:14;6.90;;;4.50;;
466;SDS011;72290;48.808;9.222;2023-11-21T14:48:43;6.40;;;4.00;;
466;SDS011;72290;48.808;9.222;2023-11-21T14:51:12;7.60;;;3.60;;
466;SDS011;72290;48.808;9.222;2023-11-21T14:53:55;5.67;;;3.30;;
466;SDS011;72290;48.808;9.222;2023-11-21T14:56:25;4.17;;;3.00;;
466;SDS011;72290;48.808;9.222;2023-11-21T14:58:59;4.07;;;2.10;;
466;SDS011;72290;48.808;9.222;2023-11-21T15:01:31;7.90;;;3.30;;
466;SDS011;72290;48.808;9.222;2023-11-21T15:04:19;2.57;;;2.40;;
466;SDS011;72290;48.808;9.222;2023-11-21T15:07:00;2.60;;;2.10;;
466;SDS011;72290;48.808;9.222;2023-11-21T15:09:27;2.43;;;2.13;;
466;SDS011;72290;48.808;9.222;2023-11-21T15:11:59;2.90;;;2.40;;
466;SDS011;72290;48.808;9.222;2023-11-21T15:14:40;3.23;;;2.47;;
466;SDS011;72290;48.808;9.222;2023-11-21T15:17:06;6.70;;;2.50;;
466;SDS011;72290;48.808;9.222;2023-11-21T15:19:32;3.10;;;2.83;;
466;SDS011;72290;48.808;9.222;2023-11-21T15:22:00;4.20;;;2.40;;
466;SDS011;72290;48.808;9.222;2023-11-21T15:24:26;3.97;;;2.50;;
466;SDS011;72290;48.808;9.222;2023-11-21T15:26:52;2.47;;;2.30;;
466;SDS011;72290;48.808;9.222;2023-11-21T15:29:19;4.10;;;3.00;;
466;SDS011;72290;48.808;9.222;2023-11-21T15:31:46;5.73;;;2.67;;
466;SDS011;72290;48.808;9.222;2023-11-21T15:34:14;3.30;;;2.80;;
466;SDS011;72290;48.808;9.222;2023-11-21T15:36:40;8.90;;;3.60;;
466;SDS011;72290;48.808;9.222;2023-11-21T15:39:06;5.57;;;3.07;;
466;SDS011;72290;48.808;9.222;2023-11-21T15:41:35;6.00;;;3.30;;
466;SDS011;72290;48.808;9.222;2023-11-21T15:44:03;6.93;;;4.00;;
466;SDS011;72290;48.808;9.222;2023-11-21T15:46:29;5.00;;;3.33;;
466;SDS011;72290;48.808;9.222;2023-11-21T15:48:56;4.73;;;3.27;;
466;SDS011;72290;48.808;9.222;2023-11-21T15:51:22;11.20;;;4.40;;
466;SDS011;72290;48.808;9.222;2023-11-21T15:53:48;5.27;;;3.60;;
466;SDS011;72290;48.808;9.222;2023-11-21T15:56:14;6.43;;;4.67;;
466;SDS011;72290;48.808;9.222;2023-11-21T15:58:40;4.20;;;3.47;;
466;SDS011;72290;48.808;9.222;2023-11-21T16:01:11;12.63;;;4.00;;
466;SDS011;72290;48.808;9.222;2023-11-21T16:03:38;6.20;;;4.20;;
466;SDS011;72290;48.808;9.222;2023-11-21T16:06:04;9.47;;;4.50;;
466;SDS011;72290;48.808;9.222;2023-11-21T16:08:34;7.13;;;4.30;;
466;SDS011;72290;48.808;9.222;2023-11-21T16:11:01;8.10;;;4.43;;
466;SDS011;72290;48.808;9.222;2023-11-21T16:13:29;9.00;;;4.47;;
466;SDS011;72290;48.808;9.222;2023-11-21T16:15:54;8.30;;;4.17;;
466;SDS011;72290;48.808;9.222;2023-11-21T16:18:20;9.43;;;4.60;;
466;SDS011;72290;48.808;9.222;2023-11-21T16:20:46;8.23;;;4.57;;
466;SDS011;72290;48.808;9.222;2023-11-21T16:23:13;11.60;;;4.90;;
466;SDS011;72290;48.808;9.222;2023-11-21T16:25:41;7.50;;;4.70;;
466;SDS011;72290;48.808;9.222;2023-11-21T16:28:07;7.43;;;4.83;;
466;SDS011;72290;48.808;9.222;2023-11-21T16:30:33;14.00;;;4.90;;
466;SDS011;72290;48.808;9.222;2023-11-21T16:33:00;13.50;;;6.67;;
466;SDS011;72290;48.808;9.222;2023-11-21T16:35:27;17.33;;;5.73;;
466;SDS011;72290;48.808;9.222;2023-11-21T16:37:53;11.50;;;6.23;;
466;SDS011;72290;48.808;9.222;2023-11-21T16:40:19;15.33;;;6.20;;
466;SDS011;72290;48.808;9.222;2023-11-21T16:42:45;12.20;;;6.00;;
466;SDS011;72290;48.808;9.222;2023-11-21T16:45:11;9.67;;;5.60;;
466;SDS011;72290;48.808;9.222;2023-11-21T16:47:37;9.93;;;5.57;;
466;SDS011;72290;48.808;9.222;2023-11-21T16:50:05;9.17;;;5.13;;
466;SDS011;72290;48.808;9.222;2023-11-21T16:52:31;12.27;;;6.73;;
466;SDS011;72290;48.808;9.222;2023-11-21T16:54:57;13.97;;;7.50;;
466;SDS011;72290;48.808;9.222;2023-11-21T16:57:23;11.50;;;6.90;;
466;SDS011;72290;48.808;9.222;2023-11-21T16:59:49;16.10;;;7.80;;
466;SDS011;72290;48.808;9.222;2023-11-21T17:02:19;12.60;;;7.10;;
466;SDS011;72290;48.808;9.222;2023-11-21T17:04:45;15.60;;;7.27;;
466;SDS011;72290;48.808;9.222;2023-11-21T17:07:13;14.10;;;6.33;;
466;SDS011;72290;48.808;9.222;2023-11-21T17:09:39;19.17;;;7.70;;
466;SDS011;72290;48.808;9.222;2023-11-21T17:12:05;13.70;;;6.90;;
466;SDS011;72290;48.808;9.222;2023-11-21T17:14:31;12.70;;;6.90;;
466;SDS011;72290;48.808;9.222;2023-11-21T17:16:58;16.90;;;7.97;;
466;SDS011;72290;48.808;9.222;2023-11-21T17:19:24;16.50;;;8.57;;
466;SDS011;72290;48.808;9.222;2023-11-21T17:21:50;18.77;;;9.47;;
466;SDS011;72290;48.808;9.222;2023-11-21T17:24:16;20.83;;;9.00;;
466;SDS011;72290;48.808;9.222;2023-11-21T17:26:42;22.60;;;9.80;;
466;SDS011;72290;48.808;9.222;2023-11-21T17:29:09;19.10;;;8.93;;
466;SDS011;72290;48.808;9.222;2023-11-21T17:31:36;20.20;;;11.13;;
466;SDS011;72290;48.808;9.222;2023-11-21T17:34:02;24.47;;;11.50;;
466;SDS011;72290;48.808;9.222;2023-11-21T17:36:28;15.43;;;8.37;;
466;SDS011;72290;48.808;9.222;2023-11-21T17:38:54;20.03;;;8.77;;
466;SDS011;72290;48.808;9.222;2023-11-21T17:41:20;16.27;;;8.43;;
466;SDS011;72290;48.808;9.222;2023-11-21T17:43:46;12.30;;;8.03;;
466;SDS011;72290;48.808;9.222;2023-11-21T17:46:17;13.80;;;7.53;;
466;SDS011;72290;48.808;9.222;2023-11-21T17:48:44;23.50;;;9.90;;
466;SDS011;72290;48.808;9.222;2023-11-21T17:51:10;20.70;;;10.27;;
466;SDS011;72290;48.808;9.222;2023-11-21T17:53:36;22.03;;;9.60;;
466;SDS011;72290;48.808;9.222;2023-11-21T17:56:02;19.57;;;9.13;;
466;SDS011;72290;48.808;9.222;2023-11-21T17:58:29;19.97;;;10.40;;
466;SDS011;72290;48.808;9.222;2023-11-21T18:00:54;19.40;;;10.13;;
466;SDS011;72290;48.808;9.222;2023-11-21T18:03:20;17.10;;;9.97;;
466;SDS011;72290;48.808;9.222;2023-11-21T18:05:46;21.53;;;9.53;;
466;SDS011;72290;48.808;9.222;2023-11-21T18:08:12;16.60;;;9.93;;
466;SDS011;72290;48.808;9.222;2023-11-21T18:10:39;13.10;;;9.00;;
466;SDS011;72290;48.808;9.222;2023-11-21T18:13:05;19.00;;;8.80;;
466;SDS011;72290;48.808;9.222;2023-11-21T18:15:31;17.60;;;9.53;;
466;SDS011;72290;48.808;9.222;2023-11-21T18:17:57;17.37;;;9.00;;
466;SDS011;72290;48.808;9.222;2023-11-21T18:20:23;19.63;;;10.00;;
466;SDS011;72290;48.808;9.222;2023-11-21T18:22:49;17.03;;;9.10;;
466;SDS011;72290;48.808;9.222;2023-11-21T18:25:15;17.43;;;9.00;;
466;SDS011;72290;48.808;9.222;2023-11-21T18:27:43;16.93;;;8.83;;
466;SDS011;72290;48.808;9.222;2023-11-21T18:30:09;15.43;;;8.80;;
466;SDS011;72290;48.808;9.222;2023-11-21T18:32:35;17.43;;;8.40;;
466;SDS011;72290;48.808;9.222;2023-11-21T18:35:01;15.67;;;6.83;;
466;SDS011;72290;48.808;9.222;2023-11-21T18:37:27;16.37;;;8.63;;
466;SDS011;72290;48.808;9.222;2023-11-21T18:39:56;14.53;;;7.97;;
466;SDS011;72290;48.808;9.222;2023-11-21T18:42:22;16.77;;;8.27;;
466;SDS011;72290;48.808;9.222;2023-11-21T18:44:49;20.03;;;9.33;;
466;SDS011;72290;48.808;9.222;2023-11-21T18:47:15;15.23;;;7.97;;
466;SDS011;72290;48.808;9.222;2023-11-21T18:49:42;12.53;;;8.10;;
466;SDS011;72290;48.808;9.222;2023-11-21T18:52:08;15.83;;;7.77;;
466;SDS011;72290;48.808;9.222;2023-11-21T18:54:36;19.10;;;7.73;;
466;SDS011;72290;48.808;9.222;2023-11-21T18:57:02;17.23;;;8.47;;
466;SDS011;72290;48.808;9.222;2023-11-21T18:59:28;15.20;;;7.80;;
466;SDS011;72290;48.808;9.222;2023-11-21T19:01:54;16.43;;;8.33;;
466;SDS011;72290;48.808;9.222;2023-11-21T19:04:19;21.03;;;8.20;;
466;SDS011;72290;48.808;9.222;2023-11-21T19:06:49;13.93;;;7.80;;
466;SDS011;72290;48.808;9.222;2023-11-21T19:09:15;18.47;;;8.97;;
466;SDS011;72290;48.808;9.222;2023-11-21T19:11:41;16.30;;;8.20;;
466;SDS011;72290;48.808;9.222;2023-11-21T19:14:07;12.93;;;7.77;;
466;SDS011;72290;48.808;9.222;2023-11-21T19:16:36;13.43;;;7.23;;
466;SDS011;72290;48.808;9.222;2023-11-21T19:19:02;17.03;;;7.30;;
466;SDS011;72290;48.808;9.222;2023-11-21T19:21:29;13.30;;;7.97;;
466;SDS011;72290;48.808;9.222;2023-11-21T19:23:55;12.67;;;7.40;;
466;SDS011;72290;48.808;9.222;2023-11-21T19:26:21;23.57;;;9.67;;
466;SDS011;72290;48.808;9.222;2023-11-21T19:28:47;23.90;;;9.17;;
466;SDS011;72290;48.808;9.222;2023-11-21T19:31:15;11.00;;;6.53;;
466;SDS011;72290;48.808;9.222;2023-11-21T19:33:41;13.33;;;7.80;;
466;SDS011;72290;48.808;9.222;2023-11-21T19:36:07;17.13;;;8.40;;
466;SDS011;72290;48.808;9.222;2023-11-21T19:38:36;17.67;;;8.30;;
466;SDS011;72290;48.808;9.222;2023-11-21T19:41:02;18.13;;;8.03;;
466;SDS011;72290;48.808;9.222;2023-11-21T19:43:31;16.00;;;8.20;;
466;SDS011;72290;48.808;9.222;2023-11-21T19:45:57;10.80;;;7.50;;
466;SDS011;72290;48.808;9.222;2023-11-21T19:48:24;15.33;;;9.43;;
466;SDS011;72290;48.808;9.222;2023-11-21T19:50:50;24.00;;;7.90;;
466;SDS011;72290;48.808;9.222;2023-11-21T19:53:16;18.43;;;9.33;;
466;SDS011;72290;48.808;9.222;2023-11-21T19:55:42;15.63;;;8.07;;
466;SDS011;72290;48.808;9.222;2023-11-21T19:58:08;12.97;;;7.70;;
466;SDS011;72290;48.808;9.222;2023-11-21T20:00:36;11.90;;;7.57;;
466;SDS011;72290;48.808;9.222;2023-11-21T20:03:02;14.23;;;7.93;;
466;SDS011;72290;48.808;9.222;2023-11-21T20:05:28;16.93;;;8.40;;
466;SDS011;72290;48.808;9.222;2023-11-21T20:07:55;13.30;;;7.30;;
466;SDS011;72290;48.808;9.222;2023-11-21T20:10:21;16.23;;;8.73;;
466;SDS011;72290;48.808;9.222;2023-11-21T20:12:47;20.60;;;9.50;;
466;SDS011;72290;48.808;9.222;2023-11-21T20:15:13;16.77;;;8.60;;
466;SDS011;72290;48.808;9.222;2023-11-21T20:17:38;17.37;;;9.27;;
466;SDS011;72290;48.808;9.222;2023-11-21T20:20:08;18.70;;;9.07;;
466;SDS011;72290;48.808;9.222;2023-11-21T20:22:35;15.40;;;8.67;;
466;SDS011;72290;48.808;9.222;2023-11-21T20:25:01;28.00;;;9.40;;
466;SDS011;72290;48.808;9.222;2023-11-21T20:27:27;16.90;;;8.63;;
466;SDS011;72290;48.808;9.222;2023-11-21T20:29:54;13.77;;;8.00;;
466;SDS011;72290;48.808;9.222;2023-11-21T20:32:21;15.83;;;9.50;;
466;SDS011;72290;48.808;9.222;2023-11-21T20:34:49;16.80;;;7.80;;
466;SDS011;72290;48.808;9.222;2023-11-21T20:37:15;17.93;;;7.53;;
466;SDS011;72290;48.808;9.222;2023-11-21T20:39:41;21.83;;;7.50;;
466;SDS011;72290;48.808;9.222;2023-11-21T20:42:10;19.33;;;9.10;;
466;SDS011;72290;48.808;9.222;2023-11-21T20:44:37;14.53;;;7.87;;
466;SDS011;72290;48.808;9.222;2023-11-21T20:47:03;22.37;;;7.80;;
466;SDS011;72290;48.808;9.222;2023-11-21T20:49:28;14.53;;;8.30;;
466;SDS011;72290;48.808;9.222;2023-11-21T20:51:54;23.80;;;8.50;;
466;SDS011;72290;48.808;9.222;2023-11-21T20:54:20;14.40;;;8.00;;
466;SDS011;72290;48.808;9.222;2023-11-21T20:56:46;13.00;;;7.53;;
466;SDS011;72290;48.808;9.222;2023-11-21T20:59:13;13.50;;;8.27;;
466;SDS011;72290;48.808;9.222;2023-11-21T21:01:39;21.03;;;8.47;;
466;SDS011;72290;48.808;9.222;2023-11-21T21:04:05;17.23;;;10.20;;
466;SDS011;72290;48.808;9.222;2023-11-21T21:06:32;15.60;;;8.40;;
466;SDS011;72290;48.808;9.222;2023-11-21T21:08:58;22.77;;;8.23;;
466;SDS011;72290;48.808;9.222;2023-11-21T21:11:24;29.00;;;9.80;;
466;SDS011;72290;48.808;9.222;2023-11-21T21:13:50;26.67;;;9.67;;
466;SDS011;72290;48.808;9.222;2023-11-21T21:16:18;23.60;;;8.57;;
466;SDS011;72290;48.808;9.222;2023-11-21T21:18:50;19.63;;;8.17;;
466;SDS011;72290;48.808;9.222;2023-11-21T21:21:17;22.90;;;7.97;;
466;SDS011;72290;48.808;9.222;2023-11-21T21:23:42;18.97;;;8.50;;
466;SDS011;72290;48.808;9.222;2023-11-21T21:26:09;20.77;;;8.90;;